Terminal Aerodrome Forecast
Issued by NWS

Home | Current Version | Previous Version | Text Only | Print | Product List | Glossary On
Versions: 1 2 3 4 5 6 7 8 9 10 11 12 13 14 15 16 17
000
FTUS46 KMFR 252339
TAFRBG
TAF
KRBG 252339Z 2600/2624 VRB03KT P6SM SCT200
     FM260800 00000KT 4SM BR OVC002
     FM261000 00000KT 1/4SM FG VV001
     FM261300 00000KT 3SM BR OVC004=

USA.gov is the U.S. government's official web portal to all federal, state and local government web resources and services.